createdAt,value
2019-02-18T00:00:19.169Z,41.97
2019-02-18T00:02:48.294Z,39.23
2019-02-18T00:05:17.264Z,33.03
2019-02-18T00:07:46.282Z,40.73
2019-02-18T00:10:15.188Z,27.93
2019-02-18T00:12:44.144Z,26.10
2019-02-18T00:15:13.275Z,29.67
2019-02-18T00:17:42.219Z,27.13
2019-02-18T00:20:11.311Z,33.30
2019-02-18T00:22:40.269Z,32.53
2019-02-18T00:25:09.465Z,31.70
2019-02-18T00:27:38.395Z,28.40
2019-02-18T00:30:07.587Z,26.87
2019-02-18T00:32:36.532Z,24.17
2019-02-18T00:35:10.550Z,27.30
2019-02-18T00:37:39.524Z,30.97
2019-02-18T00:40:08.629Z,27.90
2019-02-18T00:42:37.624Z,27.40
2019-02-18T00:45:06.856Z,31.53
2019-02-18T00:47:35.807Z,29.80
2019-02-18T00:50:05.154Z,30.07
2019-02-18T00:52:34.105Z,36.07
2019-02-18T00:55:03.008Z,36.20
2019-02-18T00:57:31.992Z,33.03
2019-02-18T01:00:00.938Z,33.33
2019-02-18T01:02:29.930Z,31.57
2019-02-18T01:04:58.896Z,34.67
2019-02-18T01:07:34.504Z,30.67
2019-02-18T01:09:58.697Z,32.37
2019-02-18T01:12:27.682Z,32.00
2019-02-18T01:14:56.617Z,30.90
2019-02-18T01:17:25.559Z,33.43
2019-02-18T01:19:54.586Z,29.63
2019-02-18T01:22:23.754Z,30.07
2019-02-18T01:24:52.890Z,32.20
2019-02-18T01:27:21.991Z,29.83
2019-02-18T01:29:50.992Z,32.47
2019-02-18T01:32:20.088Z,30.10
2019-02-18T01:34:49.038Z,27.17
2019-02-18T01:37:18.040Z,31.43
2019-02-18T01:39:46.981Z,29.13
2019-02-18T01:42:16.059Z,28.53
2019-02-18T01:44:45.097Z,29.43
2019-02-18T01:47:14.119Z,28.80
2019-02-18T01:49:43.285Z,26.37
2019-02-18T01:52:12.220Z,23.90
2019-02-18T01:54:41.139Z,29.77
2019-02-18T01:57:10.135Z,28.73
2019-02-18T01:59:39.064Z,29.70
2019-02-18T02:02:08.001Z,28.37
2019-02-18T02:04:37.156Z,23.00
2019-02-18T02:07:06.080Z,26.97
2019-02-18T02:09:35.060Z,27.07
2019-02-18T02:12:04.182Z,27.73
2019-02-18T02:14:33.097Z,28.60
2019-02-18T02:17:02.048Z,26.07
2019-02-18T02:19:31.009Z,24.60
2019-02-18T02:21:59.945Z,28.20
2019-02-18T02:24:28.849Z,27.47
2019-02-18T02:26:57.815Z,26.03
2019-02-18T02:29:26.742Z,30.77
2019-02-18T02:31:55.754Z,28.83
2019-02-18T02:34:24.833Z,26.77
2019-02-18T02:36:53.836Z,25.77
2019-02-18T02:39:22.840Z,26.80
2019-02-18T02:41:51.919Z,25.93
2019-02-18T02:44:20.931Z,27.30
2019-02-18T02:46:49.890Z,25.57
2019-02-18T02:49:18.869Z,28.13
2019-02-18T02:51:47.789Z,26.75
2019-02-18T02:54:16.854Z,24.70
2019-02-18T02:56:45.858Z,24.70
2019-02-18T02:59:14.819Z,23.50
2019-02-18T03:01:43.764Z,27.77
2019-02-18T03:04:12.791Z,24.20
2019-02-18T03:06:41.695Z,26.10
2019-02-18T03:09:10.643Z,25.47
2019-02-18T03:11:39.636Z,24.20
2019-02-18T03:14:08.545Z,25.97
2019-02-18T03:16:37.473Z,25.80
2019-02-18T03:19:06.432Z,26.30
2019-02-18T03:21:35.476Z,27.13
2019-02-18T03:24:04.497Z,32.97
2019-02-18T03:26:33.447Z,29.97
2019-02-18T03:29:45.532Z,26.17
2019-02-18T03:32:14.579Z,27.27
2019-02-18T03:34:45.440Z,27.50
2019-02-18T03:37:14.395Z,24.97
2019-02-18T03:39:43.399Z,30.27
2019-02-18T03:42:12.664Z,28.60
2019-02-18T03:44:41.589Z,26.73
2019-02-18T03:47:10.542Z,24.83
2019-02-18T03:49:39.525Z,23.00
2019-02-18T03:52:08.467Z,26.33
2019-02-18T03:54:37.511Z,26.73
2019-02-18T03:57:06.492Z,27.70
2019-02-18T03:59:35.759Z,30.10
2019-02-18T04:02:04.774Z,30.57
2019-02-18T04:04:33.840Z,29.10
2019-02-18T04:07:02.878Z,27.67
2019-02-18T04:09:31.848Z,24.07
2019-02-18T04:12:00.836Z,27.40
2019-02-18T04:14:29.890Z,24.57
2019-02-18T04:16:58.946Z,26.20
2019-02-18T04:19:27.878Z,25.47
2019-02-18T04:21:56.816Z,27.17
2019-02-18T04:24:25.779Z,28.60
2019-02-18T04:26:54.743Z,25.27
2019-02-18T04:29:23.706Z,26.50
2019-02-18T04:31:52.710Z,24.73
2019-02-18T04:34:21.644Z,23.03
2019-02-18T04:36:50.555Z,25.17
2019-02-18T04:39:19.532Z,29.10
2019-02-18T04:41:48.528Z,28.57
2019-02-18T04:44:19.014Z,25.80
2019-02-18T04:46:48.007Z,26.13
2019-02-18T04:49:16.912Z,38.07
2019-02-18T04:51:45.880Z,37.80
2019-02-18T04:54:14.865Z,32.13
2019-02-18T04:56:43.849Z,27.27
2019-02-18T04:59:12.787Z,27.60
2019-02-18T05:01:41.747Z,26.27
2019-02-18T05:04:10.697Z,32.90
2019-02-18T05:06:39.625Z,31.73
2019-02-18T05:09:08.684Z,27.53
2019-02-18T05:11:37.585Z,32.53
2019-02-18T05:14:06.500Z,36.63
2019-02-18T05:16:35.543Z,34.07
2019-02-18T05:19:04.424Z,32.97
2019-02-18T05:21:33.346Z,32.27
2019-02-18T05:24:02.452Z,33.03
2019-02-18T05:26:31.573Z,31.40
2019-02-18T05:29:00.505Z,30.37
2019-02-18T05:31:29.458Z,31.60
2019-02-18T05:33:58.389Z,45.30
2019-02-18T05:36:27.339Z,41.13
2019-02-18T05:38:56.369Z,47.07
2019-02-18T05:41:25.317Z,45.57
2019-02-18T05:43:54.410Z,44.27
2019-02-18T05:46:23.526Z,49.80
2019-02-18T05:48:52.548Z,50.93
2019-02-18T05:51:21.516Z,50.00
2019-02-18T05:53:50.533Z,43.70
2019-02-18T05:56:19.433Z,35.87
2019-02-18T05:58:48.501Z,41.47
2019-02-18T06:01:19.222Z,35.20
2019-02-18T06:03:48.148Z,33.73
2019-02-18T06:06:17.131Z,27.10
2019-02-18T06:08:46.063Z,33.17
2019-02-18T06:11:15.109Z,28.03
2019-02-18T06:13:44.093Z,33.30
2019-02-18T06:16:13.035Z,32.43
2019-02-18T06:18:41.988Z,29.30
2019-02-18T06:21:10.946Z,27.40
2019-02-18T06:23:39.876Z,28.17
2019-02-18T06:26:08.816Z,30.73
2019-02-18T06:28:37.767Z,35.97
2019-02-18T06:31:08.109Z,31.33
2019-02-18T06:33:37.049Z,32.90
2019-02-18T06:36:06.146Z,33.30
2019-02-18T06:38:35.162Z,30.83
2019-02-18T06:41:04.077Z,59.17
2019-02-18T06:43:33.493Z,67.47
2019-02-18T06:46:08.653Z,64.70
2019-02-18T06:48:41.605Z,60.90
2019-02-18T06:51:10.588Z,79.23
2019-02-18T06:53:39.714Z,66.00
2019-02-18T06:56:08.835Z,53.53
2019-02-18T06:59:03.219Z,60.10
2019-02-18T07:01:48.348Z,74.30
2019-02-18T07:04:35.422Z,71.07
2019-02-18T07:07:29.132Z,57.47
2019-02-18T07:10:04.233Z,50.83
2019-02-18T07:12:36.247Z,43.47
2019-02-18T07:15:05.736Z,41.53
2019-02-18T07:17:34.692Z,45.50
2019-02-18T07:20:03.842Z,51.40
2019-02-18T07:22:32.835Z,45.37
2019-02-18T07:25:01.785Z,43.23
2019-02-18T07:27:30.739Z,34.00
2019-02-18T07:29:59.711Z,35.57
2019-02-18T07:32:28.715Z,31.97
2019-02-18T07:34:57.633Z,33.03
2019-02-18T07:37:26.559Z,36.63
2019-02-18T07:40:01.634Z,36.10
2019-02-18T07:42:26.128Z,31.27
2019-02-18T07:44:55.048Z,37.47
2019-02-18T07:47:24.128Z,38.13
2019-02-18T07:49:53.154Z,35.67
2019-02-18T07:52:23.448Z,36.10
2019-02-18T07:54:52.435Z,34.17
2019-02-18T07:57:21.472Z,37.83
2019-02-18T07:59:50.488Z,38.53
2019-02-18T08:02:19.463Z,46.83
2019-02-18T08:04:48.413Z,43.68
2019-02-18T08:07:17.369Z,40.63
2019-02-18T08:09:46.698Z,37.87
2019-02-18T08:12:15.635Z,38.43
2019-02-18T08:14:44.650Z,42.50
2019-02-18T08:17:13.665Z,43.80
2019-02-18T08:19:44.103Z,41.07
2019-02-18T08:22:13.041Z,48.57
2019-02-18T08:24:42.047Z,48.83
2019-02-18T08:27:11.051Z,51.77
2019-02-18T08:29:39.980Z,42.70
2019-02-18T08:32:10.774Z,46.73
2019-02-18T08:34:39.694Z,51.23
2019-02-18T08:37:09.362Z,45.83
2019-02-18T08:39:38.389Z,41.00
2019-02-18T08:42:07.296Z,51.13
2019-02-18T08:44:36.236Z,47.73
2019-02-18T08:47:05.268Z,62.50
2019-02-18T08:49:34.229Z,75.20
2019-02-18T08:52:03.246Z,52.03
2019-02-18T08:54:32.234Z,32.77
2019-02-18T08:57:01.219Z,37.70
2019-02-18T08:59:30.119Z,37.43
2019-02-18T09:01:59.112Z,33.53
2019-02-18T09:04:28.276Z,35.17
2019-02-18T09:06:57.248Z,29.80
2019-02-18T09:09:26.204Z,37.27
2019-02-18T09:11:55.292Z,30.63
2019-02-18T09:14:24.361Z,30.33
2019-02-18T09:16:53.384Z,30.00
2019-02-18T09:19:22.392Z,37.25
2019-02-18T09:21:58.278Z,32.40
2019-02-18T09:24:31.600Z,36.80
2019-02-18T09:27:00.515Z,34.80
2019-02-18T09:29:29.543Z,29.17
2019-02-18T09:31:58.499Z,34.37
2019-02-18T09:34:27.500Z,33.43
2019-02-18T09:36:56.569Z,34.27
2019-02-18T09:39:31.246Z,33.23
2019-02-18T09:41:56.275Z,30.97
2019-02-18T09:44:25.328Z,29.47
2019-02-18T09:46:54.296Z,31.43
2019-02-18T09:49:23.218Z,30.40
2019-02-18T09:51:52.214Z,46.53
2019-02-18T09:54:21.139Z,37.27
2019-02-18T09:56:50.134Z,44.95
2019-02-18T09:59:19.124Z,41.07
2019-02-18T10:01:48.081Z,36.23
2019-02-18T10:04:17.091Z,54.13
2019-02-18T10:06:46.107Z,36.47
2019-02-18T10:09:15.056Z,48.17
2019-02-18T10:11:44.065Z,36.93
2019-02-18T10:14:13.210Z,38.57
2019-02-18T10:16:42.247Z,37.73
2019-02-18T10:19:11.252Z,35.50
2019-02-18T10:21:40.328Z,33.83
2019-02-18T10:24:09.341Z,30.77
2019-02-18T10:26:38.381Z,36.27
2019-02-18T10:29:07.348Z,39.00
2019-02-18T10:31:38.197Z,30.27
2019-02-18T10:34:07.133Z,49.13
2019-02-18T10:36:36.111Z,40.33
2019-02-18T10:39:05.928Z,40.73
2019-02-18T10:41:34.880Z,34.27
2019-02-18T10:44:03.967Z,40.67
2019-02-18T10:46:32.920Z,30.60
2019-02-18T10:49:01.854Z,35.93
2019-02-18T10:51:30.822Z,39.67
2019-02-18T10:53:59.928Z,37.13
2019-02-18T10:56:29.332Z,35.77
2019-02-18T10:58:58.505Z,33.13
2019-02-18T11:01:27.421Z,34.67
2019-02-18T11:03:56.423Z,37.17
2019-02-18T11:06:25.407Z,28.10
2019-02-18T11:08:54.385Z,33.67
2019-02-18T11:11:23.416Z,36.03
2019-02-18T11:13:52.359Z,36.03
2019-02-18T11:16:21.269Z,28.53
2019-02-18T11:18:50.284Z,28.37
2019-02-18T11:21:19.336Z,24.20
2019-02-18T11:23:48.312Z,27.13
2019-02-18T11:26:17.368Z,29.67
2019-02-18T11:28:46.457Z,38.23
2019-02-18T11:31:15.468Z,30.30
2019-02-18T11:33:44.786Z,42.03
2019-02-18T11:36:13.817Z,47.37
2019-02-18T11:38:42.739Z,48.77
2019-02-18T11:41:11.745Z,72.70
2019-02-18T11:43:40.737Z,46.10
2019-02-18T11:46:09.790Z,38.37
2019-02-18T11:48:39.101Z,36.63
2019-02-18T11:51:08.179Z,33.17
2019-02-18T11:53:37.144Z,39.60
2019-02-18T11:56:06.108Z,33.83
2019-02-18T11:58:35.064Z,42.53
2019-02-18T12:01:04.131Z,40.07
2019-02-18T12:03:33.141Z,32.57
2019-02-18T12:06:02.123Z,27.97
2019-02-18T12:08:31.133Z,38.37
2019-02-18T12:11:00.318Z,30.63
2019-02-18T12:13:29.371Z,55.23
2019-02-18T12:15:58.391Z,38.97
2019-02-18T12:18:27.691Z,36.77
2019-02-18T12:20:56.679Z,32.37
2019-02-18T12:23:25.792Z,58.60
2019-02-18T12:25:54.780Z,35.83
2019-02-18T12:28:23.817Z,58.50
2019-02-18T12:30:52.796Z,54.20
2019-02-18T12:33:21.833Z,56.70
2019-02-18T12:35:50.856Z,43.63
2019-02-18T12:38:19.856Z,49.90
2019-02-18T12:40:48.923Z,43.23
2019-02-18T12:43:17.944Z,48.13
2019-02-18T12:45:46.935Z,39.03
2019-02-18T12:48:16.333Z,55.73
2019-02-18T12:50:45.471Z,46.17
2019-02-18T12:53:14.468Z,29.87
2019-02-18T12:55:43.501Z,37.80
2019-02-18T12:58:12.613Z,58.87
2019-02-18T13:00:41.748Z,36.07
2019-02-18T13:03:10.836Z,45.73
2019-02-18T13:05:39.960Z,38.83
2019-02-18T13:08:09.052Z,48.20
2019-02-18T13:10:38.157Z,50.07
2019-02-18T13:13:07.213Z,57.27
2019-02-18T13:15:36.255Z,43.03
2019-02-18T13:20:34.240Z,26.67
2019-02-18T13:23:03.223Z,31.37
2019-02-18T13:25:32.469Z,51.97
2019-02-18T13:28:08.349Z,43.30
2019-02-18T13:30:32.092Z,49.87
2019-02-18T13:33:01.108Z,30.50
2019-02-18T13:35:30.224Z,24.47
2019-02-18T13:38:00.159Z,36.47
2019-02-18T13:40:29.317Z,29.73
2019-02-18T13:42:58.360Z,37.13
2019-02-18T13:45:27.287Z,34.27
2019-02-18T13:47:56.456Z,29.80
2019-02-18T13:50:25.601Z,27.17
2019-02-18T13:52:54.685Z,24.57
2019-02-18T13:55:24.048Z,23.60
2019-02-18T13:57:53.054Z,30.03
2019-02-18T14:00:22.220Z,31.60
2019-02-18T14:02:51.448Z,29.50
2019-02-18T14:05:20.853Z,24.23
2019-02-18T14:07:50.070Z,25.40
2019-02-18T14:10:19.701Z,27.23
2019-02-18T14:12:48.901Z,32.00
2019-02-18T14:15:18.053Z,30.83
2019-02-18T14:17:50.701Z,27.60
2019-02-18T14:20:19.965Z,29.20
2019-02-18T14:22:49.051Z,24.60
2019-02-18T14:25:18.120Z,23.50
2019-02-18T14:27:47.209Z,27.67
2019-02-18T14:30:16.482Z,22.40
2019-02-18T14:32:45.955Z,34.60
2019-02-18T14:35:16.463Z,51.30
2019-02-18T14:37:45.747Z,27.43
2019-02-18T14:40:16.364Z,30.13
2019-02-18T14:42:45.742Z,25.23
2019-02-18T14:45:15.394Z,24.10
2019-02-18T14:47:44.544Z,25.93
2019-02-18T14:50:16.134Z,22.47
2019-02-18T14:52:45.618Z,24.73
2019-02-18T14:55:14.971Z,23.33
2019-02-18T14:57:44.017Z,27.67
2019-02-18T15:00:20.336Z,22.83
2019-02-18T15:02:50.372Z,21.97
2019-02-18T15:05:19.518Z,20.63
2019-02-18T15:07:48.547Z,20.20
2019-02-18T15:10:17.650Z,27.17
2019-02-18T15:12:46.810Z,20.37
2019-02-18T15:15:16.507Z,18.93
2019-02-18T15:17:45.589Z,21.70
2019-02-18T15:20:14.699Z,16.93
2019-02-18T15:22:43.710Z,29.43
2019-02-18T15:25:13.156Z,34.60
2019-02-18T15:27:42.225Z,26.63
2019-02-18T15:30:12.553Z,31.07
2019-02-18T15:32:41.658Z,20.80
2019-02-18T15:35:10.869Z,20.60
2019-02-18T15:37:40.028Z,22.07
2019-02-18T15:40:10.065Z,24.77
2019-02-18T15:42:42.334Z,21.03
2019-02-18T15:45:10.123Z,17.50
2019-02-18T15:47:39.313Z,21.37
2019-02-18T15:50:09.837Z,23.20
2019-02-18T15:52:38.941Z,29.23
2019-02-18T15:55:08.272Z,21.87
2019-02-18T15:57:37.419Z,27.80
2019-02-18T16:00:08.828Z,22.27
2019-02-18T16:02:37.961Z,17.70
2019-02-18T16:05:07.579Z,20.83
2019-02-18T16:07:36.748Z,20.67
2019-02-18T16:10:06.291Z,24.40
2019-02-18T16:12:35.450Z,21.30
2019-02-18T16:15:05.167Z,21.13
2019-02-18T16:17:34.399Z,22.97
2019-02-18T16:20:04.776Z,20.63
2019-02-18T16:22:33.813Z,23.53
2019-02-18T16:25:02.980Z,34.37
2019-02-18T16:27:31.951Z,43.53
2019-02-18T16:30:03.917Z,29.47
2019-02-18T16:32:35.776Z,24.63
2019-02-18T16:35:05.075Z,27.13
2019-02-18T16:37:34.516Z,31.87
2019-02-18T16:40:03.733Z,25.17
2019-02-18T16:42:32.843Z,21.13
2019-02-18T16:45:02.296Z,30.43
2019-02-18T16:47:31.354Z,38.20
2019-02-18T16:50:00.340Z,38.30
2019-02-18T16:52:29.322Z,43.37
2019-02-18T16:54:58.436Z,31.07
2019-02-18T16:57:27.505Z,43.40
2019-02-18T16:59:56.532Z,52.27
2019-02-18T17:02:27.013Z,41.87
2019-02-18T17:04:56.070Z,32.87
2019-02-18T17:07:25.075Z,39.80
2019-02-18T17:09:54.139Z,41.10
2019-02-18T17:12:23.232Z,44.60
2019-02-18T17:14:52.255Z,37.37
2019-02-18T17:17:21.685Z,43.67
2019-02-18T17:19:50.793Z,49.17
2019-02-18T17:22:19.800Z,46.17
2019-02-18T17:24:48.853Z,50.13
2019-02-18T17:27:17.851Z,60.43
2019-02-18T17:29:47.040Z,40.87
2019-02-18T17:32:16.035Z,47.10
2019-02-18T17:34:45.031Z,33.90
2019-02-18T17:37:14.048Z,39.53
2019-02-18T17:39:43.107Z,39.87
2019-02-18T17:42:13.420Z,37.73
2019-02-18T17:44:42.461Z,33.70
2019-02-18T17:47:11.507Z,34.60
2019-02-18T17:49:40.808Z,40.23
2019-02-18T17:52:09.827Z,40.83
2019-02-18T17:54:38.867Z,38.00
2019-02-18T17:57:07.950Z,33.67
2019-02-18T17:59:36.979Z,39.17
2019-02-18T18:02:06.198Z,34.97
2019-02-18T18:04:35.647Z,30.03
2019-02-18T18:07:04.653Z,32.33
2019-02-18T18:09:33.720Z,34.23
2019-02-18T18:12:03.968Z,29.73
2019-02-18T18:14:32.928Z,30.33
2019-02-18T18:17:19.481Z,38.93
2019-02-18T18:19:48.517Z,31.97
2019-02-18T18:22:17.645Z,33.30
2019-02-18T18:24:47.023Z,34.30
2019-02-18T18:27:16.023Z,33.63
2019-02-18T18:29:45.147Z,32.00
2019-02-18T18:32:14.288Z,37.10
2019-02-18T18:34:43.337Z,37.67
2019-02-18T18:37:12.382Z,32.17
2019-02-18T18:39:41.427Z,32.37
2019-02-18T18:42:10.399Z,36.33
2019-02-18T18:44:39.440Z,38.03
2019-02-18T18:47:08.505Z,34.27
2019-02-18T18:49:37.517Z,37.83
2019-02-18T18:52:06.597Z,38.57
2019-02-18T18:54:35.583Z,33.97
2019-02-18T18:57:04.727Z,41.97
2019-02-18T18:59:34.227Z,47.33
2019-02-18T19:02:03.196Z,42.60
2019-02-18T19:04:32.180Z,42.03
2019-02-18T19:07:01.850Z,36.93
2019-02-18T19:09:30.950Z,39.13
2019-02-18T19:12:00.076Z,43.60
2019-02-18T19:14:29.372Z,46.40
2019-02-18T19:16:58.395Z,41.03
2019-02-18T19:19:27.519Z,38.37
2019-02-18T19:21:56.480Z,38.60
2019-02-18T19:24:25.477Z,40.97
2019-02-18T19:26:54.597Z,36.23
2019-02-18T19:29:23.890Z,70.20
2019-02-18T19:31:53.130Z,87.20
2019-02-18T19:34:22.097Z,66.73
2019-02-18T19:36:51.040Z,93.73
2019-02-18T19:39:20.202Z,92.90
2019-02-18T19:41:49.297Z,47.60
2019-02-18T19:44:19.911Z,39.03
2019-02-18T19:46:49.135Z,40.30
2019-02-18T19:49:18.302Z,37.60
2019-02-18T19:51:47.405Z,53.90
2019-02-18T19:54:16.505Z,41.60
2019-02-18T19:56:45.591Z,52.83
2019-02-18T19:59:17.969Z,39.63
2019-02-18T20:01:47.119Z,49.63
2019-02-18T20:04:16.210Z,53.57
2019-02-18T20:06:45.342Z,52.20
2019-02-18T20:09:15.648Z,56.40
2019-02-18T20:11:45.023Z,48.30
2019-02-18T20:14:14.053Z,40.43
2019-02-18T20:16:42.997Z,39.70
2019-02-18T20:19:12.020Z,41.67
2019-02-18T20:21:40.947Z,44.27
2019-02-18T20:24:10.067Z,40.83
2019-02-18T20:26:39.452Z,49.03
2019-02-18T20:29:08.449Z,57.00
2019-02-18T20:31:37.622Z,63.37
2019-02-18T20:34:06.680Z,44.17
2019-02-18T20:36:35.802Z,48.97
2019-02-18T20:39:07.282Z,45.20
2019-02-18T20:41:36.373Z,51.67
2019-02-18T20:44:07.570Z,65.37
2019-02-18T20:46:36.169Z,53.87
2019-02-18T20:49:05.198Z,41.63
2019-02-18T20:51:34.432Z,39.27
2019-02-18T20:54:03.644Z,51.10
2019-02-18T20:56:32.820Z,51.00
2019-02-18T20:59:01.964Z,45.67
2019-02-18T21:01:31.016Z,46.43
2019-02-18T21:04:00.051Z,49.33
2019-02-18T21:06:29.083Z,38.07
2019-02-18T21:08:58.148Z,30.00
2019-02-18T21:11:27.165Z,34.33
2019-02-18T21:13:56.191Z,29.10
2019-02-18T21:16:25.260Z,31.37
2019-02-18T21:18:56.232Z,31.53
2019-02-18T21:21:24.924Z,29.10
2019-02-18T21:24:01.895Z,30.17
2019-02-18T21:26:30.919Z,30.23
2019-02-18T21:29:00.087Z,29.23
2019-02-18T21:31:36.797Z,28.80
2019-02-18T21:34:05.874Z,26.40
2019-02-18T21:36:35.226Z,29.27
2019-02-18T21:39:06.957Z,30.90
2019-02-18T21:41:36.088Z,26.60
2019-02-18T21:44:05.097Z,34.33
2019-02-18T21:46:34.103Z,30.03
2019-02-18T21:49:03.136Z,31.37
2019-02-18T21:51:32.433Z,33.47
2019-02-18T21:54:01.470Z,29.00
2019-02-18T21:56:30.482Z,26.03
2019-02-18T21:58:59.522Z,22.83
2019-02-18T22:01:28.579Z,24.27
2019-02-18T22:03:57.645Z,26.30
2019-02-18T22:06:26.917Z,27.73
2019-02-18T22:08:55.963Z,28.00
2019-02-18T22:11:27.622Z,28.67
2019-02-18T22:13:56.759Z,25.43
2019-02-18T22:16:27.242Z,25.80
2019-02-18T22:18:56.210Z,28.40
2019-02-18T22:21:25.705Z,27.13
2019-02-18T22:23:54.898Z,29.17
2019-02-18T22:26:23.879Z,25.47
2019-02-18T22:28:52.851Z,29.10
2019-02-18T22:31:22.059Z,28.77
2019-02-18T22:33:51.139Z,27.43
2019-02-18T22:36:20.227Z,26.53
2019-02-18T22:38:49.328Z,27.07
2019-02-18T22:41:18.405Z,28.60
2019-02-18T22:43:47.432Z,27.83
2019-02-18T22:46:16.451Z,32.67
2019-02-18T22:48:45.558Z,33.20
2019-02-18T22:51:14.569Z,27.50
2019-02-18T22:53:43.779Z,30.33
2019-02-18T22:56:12.831Z,24.40
2019-02-18T22:58:41.881Z,24.17
2019-02-18T23:01:11.670Z,25.73
2019-02-18T23:03:40.886Z,25.50
2019-02-18T23:06:09.975Z,23.67
2019-02-18T23:08:39.481Z,26.00
2019-02-18T23:11:08.527Z,28.40
2019-02-18T23:13:38.708Z,28.87
2019-02-18T23:16:07.812Z,27.40
2019-02-18T23:18:36.879Z,29.40
2019-02-18T23:21:05.976Z,26.70
2019-02-18T23:23:34.997Z,23.93
2019-02-18T23:26:04.055Z,23.13
2019-02-18T23:28:33.055Z,22.83
2019-02-18T23:31:02.462Z,24.20
2019-02-18T23:33:31.533Z,29.33
2019-02-18T23:36:00.651Z,23.67
2019-02-18T23:38:29.728Z,34.77
2019-02-18T23:40:58.964Z,40.23
2019-02-18T23:43:28.665Z,34.53
2019-02-18T23:45:57.670Z,30.47
2019-02-18T23:48:26.691Z,31.80
2019-02-18T23:50:55.730Z,27.07
2019-02-18T23:53:24.803Z,25.67
2019-02-18T23:55:53.953Z,29.00
2019-02-18T23:58:22.964Z,25.07
